Time;durP1;ratioP1;P1;durP2;ratioP2;P2;SDS_P1;SDS_P2;PMS_P1;PMS_P2;Temp;Humidity;BMP_temperature;BMP_pressure;BME280_temperature;BME280_humidity;BME280_pressure;Samples;Min_cycle;Max_cycle;Signal;HPM_P1;HPM_P2
2021/06/23 00:00:29;;;;;;;;;;;;;;;20.22;83.42;99387.63;5091782;28;889;-54
2021/06/23 00:02:56;;;;;;;;;;;;;;;20.32;83.06;99375.06;5091766;28;869;-55
2021/06/23 00:05:22;;;;;;;;;;;;;;;20.33;82.57;99380.22;5091458;28;1227;-54
2021/06/23 00:07:50;;;;;;;;;;;;;;;20.18;82.46;99385.78;5091657;28;1906;-54
2021/06/23 00:10:16;;;;;;;;;;;;;;;20.05;82.85;99384.47;5091712;28;850;-55
2021/06/23 00:12:44;;;;;;;;;;;;;;;19.98;83.12;99394.03;5091613;28;836;-55
2021/06/23 00:15:13;;;;;;;;;;;;;;;19.95;83.32;99394.97;5091687;28;901;-55
2021/06/23 00:17:41;;;;;;;;;;;;;;;19.93;83.30;99406.69;5091598;28;880;-54
2021/06/23 00:20:08;;;;;;;;;;;;;;;19.90;83.32;99392.81;5091611;28;826;-51
2021/06/23 00:22:35;;;;;;;;;;;;;;;19.83;83.61;99396.00;5091347;28;885;-51
2021/06/23 00:25:02;;;;;;;;;;;;;;;19.78;83.63;99400.22;5091763;28;857;-50
2021/06/23 00:27:29;;;;;;;;;;;;;;;19.73;83.69;99396.03;5091377;28;1882;-52
2021/06/23 00:29:56;;;;;;;;;;;;;;;19.71;83.80;99392.91;5091383;28;1120;-51
2021/06/23 00:32:23;;;;;;;;;;;;;;;19.70;83.93;99399.03;5091512;28;842;-50
2021/06/23 00:34:50;;;;;;;;;;;;;;;19.69;84.02;99391.81;5091435;28;834;-50
2021/06/23 00:37:17;;;;;;;;;;;;;;;19.69;84.22;99392.59;5091403;28;858;-49
2021/06/23 00:39:43;;;;;;;;;;;;;;;19.72;84.53;99382.50;5091298;28;818;-49
2021/06/23 00:42:11;;;;;;;;;;;;;;;19.77;84.93;99387.44;5091360;28;846;-51
2021/06/23 00:44:38;;;;;;;;;;;;;;;19.79;84.42;99388.50;5091280;28;901;-50
2021/06/23 00:47:05;;;;;;;;;;;;;;;19.74;84.33;99391.97;5091348;28;1910;-52
2021/06/23 00:49:33;;;;;;;;;;;;;;;19.67;84.50;99395.13;5094003;28;882;-50
2021/06/23 00:52:01;;;;;;;;;;;;;;;19.62;84.63;99398.53;5094928;28;944;-52
2021/06/23 00:54:27;;;;;;;;;;;;;;;19.52;84.49;99399.84;5095122;28;1898;-51
2021/06/23 00:57:00;;;;;;;;;;;;;;;19.42;84.67;99392.75;5093887;28;1448;-53
2021/06/23 00:59:27;;;;;;;;;;;;;;;19.36;84.86;99401.00;5095057;28;866;-50
2021/06/23 01:01:54;;;;;;;;;;;;;;;19.31;85.10;99398.81;5095048;28;837;-52
2021/06/23 01:04:21;;;;;;;;;;;;;;;19.27;85.36;99389.84;5094961;28;965;-52
2021/06/23 01:06:48;;;;;;;;;;;;;;;19.22;85.34;99388.44;5094616;28;1882;-50
2021/06/23 01:09:15;;;;;;;;;;;;;;;19.18;85.42;99383.00;5094877;28;921;-50
2021/06/23 01:11:58;;;;;;;;;;;;;;;19.15;85.54;99383.16;5094804;28;794;-52
2021/06/23 01:14:26;;;;;;;;;;;;;;;19.13;85.92;99377.25;5094830;28;901;-50
2021/06/23 01:16:52;;;;;;;;;;;;;;;19.12;85.77;99379.28;5095015;28;929;-51
2021/06/23 01:19:21;;;;;;;;;;;;;;;19.10;85.78;99376.19;5094731;28;838;-52
2021/06/23 01:21:48;;;;;;;;;;;;;;;19.08;85.91;99375.88;5094533;28;803;-52
2021/06/23 01:24:15;;;;;;;;;;;;;;;19.03;85.30;99378.53;5094646;28;823;-50
2021/06/23 01:26:41;;;;;;;;;;;;;;;19.00;85.71;99373.88;5094433;28;1971;-51
2021/06/23 01:29:08;;;;;;;;;;;;;;;18.98;85.83;99371.53;5094449;28;886;-53
2021/06/23 01:31:35;;;;;;;;;;;;;;;18.96;85.78;99377.59;5094453;28;924;-50
2021/06/23 01:34:02;;;;;;;;;;;;;;;18.92;85.71;99379.78;5094289;28;917;-51
2021/06/23 01:36:30;;;;;;;;;;;;;;;18.87;85.93;99379.66;5094286;28;902;-50
2021/06/23 01:38:57;;;;;;;;;;;;;;;18.82;86.02;99383.88;5094276;28;888;-50
2021/06/23 01:41:23;;;;;;;;;;;;;;;18.83;86.31;99379.06;5094301;28;893;-52
2021/06/23 01:43:50;;;;;;;;;;;;;;;18.80;86.52;99369.56;5094126;28;846;-52
2021/06/23 01:46:18;;;;;;;;;;;;;;;18.79;86.61;99376.41;5094083;28;1881;-53
2021/06/23 01:48:43;;;;;;;;;;;;;;;18.77;86.48;99370.47;5094114;28;913;-53
2021/06/23 01:51:10;;;;;;;;;;;;;;;18.75;86.38;99367.38;5093919;28;957;-50
2021/06/23 01:53:37;;;;;;;;;;;;;;;18.74;86.54;99374.22;5094024;28;937;-50
2021/06/23 01:56:04;;;;;;;;;;;;;;;18.72;86.43;99377.47;5093947;28;956;-53
2021/06/23 01:58:33;;;;;;;;;;;;;;;18.70;86.43;99376.41;5093878;28;834;-51
2021/06/23 02:01:14;;;;;;;;;;;;;;;18.70;86.63;99379.19;5093468;28;909;-51
2021/06/23 02:03:47;;;;;;;;;;;;;;;18.71;86.64;99380.75;5093891;28;1583;-52
2021/06/23 02:06:32;;;;;;;;;;;;;;;18.70;86.63;99379.19;5092121;28;1972;-51
2021/06/23 02:09:17;;;;;;;;;;;;;;;18.67;86.87;99380.91;5093645;28;908;-51
2021/06/23 02:11:47;;;;;;;;;;;;;;;18.70;86.93;99382.78;5093700;28;884;-52
2021/06/23 02:14:33;;;;;;;;;;;;;;;18.70;86.93;99388.38;5093541;28;905;-52
2021/06/23 02:17:00;;;;;;;;;;;;;;;18.69;87.00;99388.84;5093557;28;905;-50
2021/06/23 02:19:29;;;;;;;;;;;;;;;18.66;86.89;99386.97;5093456;28;929;-52
2021/06/23 02:21:56;;;;;;;;;;;;;;;18.63;86.80;99390.72;5092127;28;1008;-50
2021/06/23 02:24:23;;;;;;;;;;;;;;;18.61;86.83;99388.38;5093347;28;850;-50
2021/06/23 02:26:49;;;;;;;;;;;;;;;18.57;86.86;99391.34;5093293;28;1961;-51
2021/06/23 02:29:16;;;;;;;;;;;;;;;18.55;86.94;99379.06;5093380;28;838;-53
2021/06/23 02:31:42;;;;;;;;;;;;;;;18.50;86.92;99386.06;5093457;28;834;-51
2021/06/23 02:34:13;;;;;;;;;;;;;;;18.48;86.79;99382.19;5093407;28;838;-51
2021/06/23 02:36:40;;;;;;;;;;;;;;;18.45;87.09;99386.66;5093205;28;912;-51
2021/06/23 02:39:07;;;;;;;;;;;;;;;18.44;87.02;99381.56;5093181;28;962;-53
2021/06/23 02:41:34;;;;;;;;;;;;;;;18.42;87.00;99387.63;5093035;28;889;-50
2021/06/23 02:44:01;;;;;;;;;;;;;;;18.39;86.90;99393.34;5093067;28;909;-52
2021/06/23 02:46:28;;;;;;;;;;;;;;;18.38;87.10;99395.38;5092890;28;1893;-52
2021/06/23 02:48:56;;;;;;;;;;;;;;;18.36;86.88;99401.44;5092935;28;870;-52
2021/06/23 02:51:24;;;;;;;;;;;;;;;18.40;87.18;99392.91;5092855;28;794;-50
2021/06/23 02:53:52;;;;;;;;;;;;;;;18.42;87.40;99390.41;5092817;28;853;-52
2021/06/23 02:56:19;;;;;;;;;;;;;;;18.46;87.34;99387.47;5092922;28;881;-50
2021/06/23 02:58:47;;;;;;;;;;;;;;;18.48;87.29;99382.97;5092757;28;838;-53
2021/06/23 03:01:15;;;;;;;;;;;;;;;18.50;87.12;99391.66;5092725;28;850;-51
2021/06/23 03:03:42;;;;;;;;;;;;;;;18.48;86.91;99388.56;5092701;28;818;-52
2021/06/23 03:06:09;;;;;;;;;;;;;;;18.49;86.94;99392.88;5092278;28;1901;-52
2021/06/23 03:08:37;;;;;;;;;;;;;;;18.50;87.14;99394.47;5092541;28;873;-52
2021/06/23 03:11:04;;;;;;;;;;;;;;;18.54;87.03;99392.28;5092001;28;783;-51
2021/06/23 03:13:31;;;;;;;;;;;;;;;18.55;86.88;99398.66;5092405;28;925;-53
2021/06/23 03:15:58;;;;;;;;;;;;;;;18.54;87.06;99395.09;5091233;28;825;-53
2021/06/23 03:18:27;;;;;;;;;;;;;;;18.57;87.04;99393.38;5092656;28;892;-52
2021/06/23 03:20:54;;;;;;;;;;;;;;;18.61;86.82;99396.00;5092484;28;878;-52
2021/06/23 03:23:20;;;;;;;;;;;;;;;18.66;86.89;99395.38;5093075;28;763;-51
2021/06/23 03:25:47;;;;;;;;;;;;;;;18.72;87.01;99393.50;5092956;28;1893;-53
2021/06/23 03:28:14;;;;;;;;;;;;;;;18.79;87.11;99401.59;5092618;28;811;-51
2021/06/23 03:30:41;;;;;;;;;;;;;;;18.87;87.08;99405.63;5092874;28;794;-53
2021/06/23 03:33:08;;;;;;;;;;;;;;;18.96;87.15;99405.63;5092212;28;877;-53
2021/06/23 03:35:34;;;;;;;;;;;;;;;19.11;86.86;99405.72;5092736;28;822;-53
2021/06/23 03:38:02;;;;;;;;;;;;;;;19.27;86.21;99403.84;5092364;28;948;-51
2021/06/23 03:40:29;;;;;;;;;;;;;;;19.39;85.89;99411.25;5092054;28;885;-53
2021/06/23 03:42:55;;;;;;;;;;;;;;;19.34;85.61;99412.66;5092621;28;770;-53
2021/06/23 03:45:22;;;;;;;;;;;;;;;19.22;85.53;99424.84;5091887;28;885;-53
2021/06/23 03:47:49;;;;;;;;;;;;;;;19.16;85.77;99410.72;5091927;28;1951;-53
2021/06/23 03:50:16;;;;;;;;;;;;;;;19.12;85.69;99421.31;5091692;28;924;-53
2021/06/23 03:52:44;;;;;;;;;;;;;;;19.13;86.12;99427.69;5091927;28;782;-52
2021/06/23 03:55:20;;;;;;;;;;;;;;;19.28;86.20;99422.19;5092347;28;807;-53
2021/06/23 03:57:48;;;;;;;;;;;;;;;19.42;85.40;99423.56;5091863;28;823;-53
2021/06/23 04:00:15;;;;;;;;;;;;;;;19.49;85.35;99415.56;5091784;28;886;-54
2021/06/23 04:02:43;;;;;;;;;;;;;;;19.64;85.32;99420.50;5091759;28;893;-54
2021/06/23 04:05:11;;;;;;;;;;;;;;;19.75;85.27;99412.38;5091786;28;1187;-54
2021/06/23 04:07:37;;;;;;;;;;;;;;;19.85;84.62;99415.91;5091298;28;1906;-54
2021/06/23 04:10:05;;;;;;;;;;;;;;;19.87;84.57;99419.78;5091612;28;940;-54
2021/06/23 04:12:31;;;;;;;;;;;;;;;19.90;84.12;99420.88;5091932;28;907;-53
2021/06/23 04:14:58;;;;;;;;;;;;;;;19.86;84.13;99423.06;5091714;28;814;-54
2021/06/23 04:17:25;;;;;;;;;;;;;;;19.82;84.30;99428.84;5091709;28;822;-53
2021/06/23 04:19:52;;;;;;;;;;;;;;;19.81;84.57;99430.09;5091447;28;886;-53
2021/06/23 04:22:19;;;;;;;;;;;;;;;19.77;84.59;99430.28;5092346;28;901;-53
2021/06/23 04:24:45;;;;;;;;;;;;;;;19.79;84.61;99422.16;5095727;28;952;-52
2021/06/23 04:27:11;;;;;;;;;;;;;;;19.84;84.42;99429.13;5095669;28;1926;-52
2021/06/23 04:29:38;;;;;;;;;;;;;;;19.86;84.44;99428.69;5095674;28;942;-53
2021/06/23 04:32:06;;;;;;;;;;;;;;;19.91;84.36;99431.63;5095653;28;807;-53
2021/06/23 04:34:33;;;;;;;;;;;;;;;20.13;84.03;99425.72;5095626;28;806;-53
2021/06/23 04:36:59;;;;;;;;;;;;;;;20.48;83.52;99433.56;5095457;28;842;-54
2021/06/23 04:39:25;;;;;;;;;;;;;;;20.91;82.53;99433.38;5095569;28;798;-54
2021/06/23 04:41:52;;;;;;;;;;;;;;;21.30;80.88;99433.31;5095482;28;806;-54
2021/06/23 04:44:18;;;;;;;;;;;;;;;21.76;79.63;99447.63;5095513;28;875;-55
2021/06/23 04:46:45;;;;;;;;;;;;;;;22.20;77.59;99443.09;5095253;28;1886;-54
2021/06/23 04:49:12;;;;;;;;;;;;;;;22.72;75.96;99439.66;5094031;28;826;-54
2021/06/23 04:51:38;;;;;;;;;;;;;;;22.88;75.13;99441.13;5095188;28;924;-53
2021/06/23 04:54:05;;;;;;;;;;;;;;;22.79;75.34;99442.81;5095176;28;885;-53
2021/06/23 04:56:32;;;;;;;;;;;;;;;22.93;75.52;99452.44;5095149;28;794;-53
2021/06/23 04:58:59;;;;;;;;;;;;;;;23.59;74.19;99447.16;5095096;28;889;-54
2021/06/23 05:01:26;;;;;;;;;;;;;;;24.09;72.60;99458.03;5094985;28;936;-54
2021/06/23 05:03:53;;;;;;;;;;;;;;;23.96;72.26;99452.81;5095048;28;787;-54
2021/06/23 05:14:06;;;;;;;;;;;;;;;23.80;72.49;99454.25;5075281;22;1652;-54
2021/06/23 05:16:34;;;;;;;;;;;;;;;23.57;73.26;99458.16;5074800;28;856;-54
2021/06/23 05:19:00;;;;;;;;;;;;;;;23.57;73.29;99460.97;5074638;28;881;-54
2021/06/23 05:21:26;;;;;;;;;;;;;;;23.49;72.75;99466.28;5074699;28;888;-54
2021/06/23 05:23:53;;;;;;;;;;;;;;;23.31;73.46;99467.44;5074495;28;897;-54
2021/06/23 05:38:30;;;;;;;;;;;;;;;23.75;73.36;99471.13;5074487;28;704;-55
2021/06/23 05:40:56;;;;;;;;;;;;;;;25.14;69.60;99468.72;5074119;28;866;-54
2021/06/23 05:43:23;;;;;;;;;;;;;;;26.93;65.25;99457.56;5073913;28;858;-55
2021/06/23 05:45:50;;;;;;;;;;;;;;;28.35;61.34;99470.03;5073937;28;1886;-56
2021/06/23 05:48:16;;;;;;;;;;;;;;;27.94;62.17;99479.50;5073932;28;865;-56
2021/06/23 05:50:45;;;;;;;;;;;;;;;27.54;62.75;99475.47;5073938;28;858;-55
2021/06/23 05:53:11;;;;;;;;;;;;;;;27.32;63.26;99479.25;5073745;28;993;-56
2021/06/23 05:55:39;;;;;;;;;;;;;;;27.01;63.64;99472.72;5055838;28;1434;-56
2021/06/23 05:58:06;;;;;;;;;;;;;;;28.29;60.93;99480.69;5073804;28;869;-56
2021/06/23 06:00:35;;;;;;;;;;;;;;;29.80;56.58;99467.72;5073695;28;889;-56
2021/06/23 06:03:04;;;;;;;;;;;;;;;30.13;55.34;99467.09;5073686;28;921;-56
2021/06/23 06:05:30;;;;;;;;;;;;;;;30.50;54.24;99470.28;5073639;28;837;-57
2021/06/23 06:07:57;;;;;;;;;;;;;;;30.96;53.47;99464.41;5073520;28;1886;-57
2021/06/23 06:10:24;;;;;;;;;;;;;;;31.99;50.41;99473.59;5073506;28;803;-57
2021/06/23 06:12:50;;;;;;;;;;;;;;;32.53;48.51;99476.78;5073386;28;1260;-57
2021/06/23 06:15:18;;;;;;;;;;;;;;;32.98;47.35;99480.38;5073407;28;826;-57
2021/06/23 06:17:44;;;;;;;;;;;;;;;33.63;46.54;99471.56;5073693;28;823;-57
2021/06/23 06:20:11;;;;;;;;;;;;;;;34.29;44.99;99472.66;5073363;28;798;-57
2021/06/23 06:22:37;;;;;;;;;;;;;;;34.05;43.95;99483.38;5073279;28;960;-57
2021/06/23 06:25:04;;;;;;;;;;;;;;;33.50;45.65;99486.81;5073417;28;880;-58
2021/06/23 06:27:31;;;;;;;;;;;;;;;33.23;45.26;99492.13;5073148;28;1914;-58
2021/06/23 06:29:57;;;;;;;;;;;;;;;32.89;46.42;99496.00;5073141;28;798;-58
2021/06/23 06:32:23;;;;;;;;;;;;;;;33.07;46.97;99497.03;5073111;28;950;-58
2021/06/23 06:34:50;;;;;;;;;;;;;;;32.27;47.49;99495.69;5073049;28;842;-58
2021/06/23 06:37:17;;;;;;;;;;;;;;;31.38;49.96;99496.63;5072966;28;854;-58
2021/06/23 06:39:44;;;;;;;;;;;;;;;30.56;52.15;99502.31;5072980;28;886;-57
2021/06/23 06:42:11;;;;;;;;;;;;;;;29.57;54.04;99501.47;5072798;28;830;-57
2021/06/23 06:44:37;;;;;;;;;;;;;;;28.39;56.93;99496.06;5072896;28;856;-57
2021/06/23 06:47:05;;;;;;;;;;;;;;;27.08;60.94;99500.53;5071689;28;1902;-57
2021/06/23 06:49:31;;;;;;;;;;;;;;;26.02;64.61;99523.03;5072849;28;818;-59
2021/06/23 06:52:00;;;;;;;;;;;;;;;25.05;68.01;99541.16;5072699;28;846;-60
2021/06/23 06:54:30;;;;;;;;;;;;;;;24.06;73.84;99540.88;5072681;28;900;-55
2021/06/23 06:56:57;;;;;;;;;;;;;;;22.80;81.25;99514.00;5072626;28;818;-60
2021/06/23 06:59:23;;;;;;;;;;;;;;;22.09;83.79;99528.16;5072481;28;798;-59
2021/06/23 07:01:49;;;;;;;;;;;;;;;21.81;84.98;99527.72;5072530;28;811;-63
2021/06/23 07:04:16;;;;;;;;;;;;;;;21.80;86.15;99521.31;5072584;28;857;-60
2021/06/23 07:06:43;;;;;;;;;;;;;;;22.11;86.53;99514.38;5072397;28;1913;-57
2021/06/23 07:09:10;;;;;;;;;;;;;;;22.84;84.55;99517.41;5072416;28;891;-57
2021/06/23 07:14:39;;;;;;;;;;;;;;;23.02;78.90;99519.94;5057275;28;1374;-57
2021/06/23 07:17:06;;;;;;;;;;;;;;;23.08;80.25;99527.69;5072294;28;896;-56
2021/06/23 07:19:33;;;;;;;;;;;;;;;23.57;80.45;99535.06;5072169;28;869;-54
2021/06/23 07:22:00;;;;;;;;;;;;;;;25.75;74.58;99526.63;5072117;28;837;-49
2021/06/23 07:24:28;;;;;;;;;;;;;;;27.83;68.77;99522.97;5072178;28;821;-49
2021/06/23 07:26:58;;;;;;;;;;;;;;;29.51;63.78;99522.28;5072271;28;1918;-47
2021/06/23 07:29:28;;;;;;;;;;;;;;;30.76;60.14;99522.91;5072176;28;948;-48
2021/06/23 07:32:00;;;;;;;;;;;;;;;31.99;56.28;99524.28;5054078;28;937;-47
2021/06/23 07:37:02;;;;;;;;;;;;;;;34.06;51.79;99515.69;5071849;28;703;-46
2021/06/23 07:39:28;;;;;;;;;;;;;;;34.86;47.22;99515.16;5071963;28;957;-46
2021/06/23 07:41:56;;;;;;;;;;;;;;;35.15;46.25;99524.22;5071890;28;883;-46
2021/06/23 07:44:29;;;;;;;;;;;;;;;35.25;45.42;99523.59;5054017;28;909;-46
2021/06/23 07:46:58;;;;;;;;;;;;;;;34.46;48.55;99527.31;5071636;28;1952;-47
2021/06/23 07:49:27;;;;;;;;;;;;;;;35.42;47.55;99528.66;5071597;28;902;-48
2021/06/23 08:10:26;;;;;;;;;;;;;;;35.82;43.74;99536.44;5071352;28;973;-61
2021/06/23 08:12:57;;;;;;;;;;;;;;;37.01;39.39;99544.28;5071840;28;933;-63
2021/06/23 08:15:26;;;;;;;;;;;;;;;37.83;38.87;99538.53;5071581;28;1414;-64
2021/06/23 08:17:52;;;;;;;;;;;;;;;38.49;36.76;99535.66;5071597;28;849;-63
2021/06/23 08:20:19;;;;;;;;;;;;;;;38.98;36.06;99527.78;5071499;28;884;-63
2021/06/23 08:22:45;;;;;;;;;;;;;;;39.36;35.59;99535.59;5071799;28;1017;-64
2021/06/23 08:25:11;;;;;;;;;;;;;;;39.42;34.49;99532.41;5071648;28;866;-65
2021/06/23 08:27:39;;;;;;;;;;;;;;;39.17;33.90;99527.72;5071691;28;1921;-66
2021/06/23 08:30:06;;;;;;;;;;;;;;;38.64;33.92;99529.59;5071664;28;865;-68
2021/06/23 08:32:33;;;;;;;;;;;;;;;38.33;35.72;99535.94;5071490;28;872;-67
2021/06/23 08:35:00;;;;;;;;;;;;;;;38.36;33.36;99537.59;5071563;28;821;-67
2021/06/23 08:37:27;;;;;;;;;;;;;;;38.17;33.73;99532.59;5071491;28;810;-65
2021/06/23 08:39:53;;;;;;;;;;;;;;;37.74;34.98;99532.13;5071606;28;821;-64
2021/06/23 08:42:21;;;;;;;;;;;;;;;38.03;35.81;99536.47;5071321;28;878;-63
2021/06/23 08:44:47;;;;;;;;;;;;;;;38.50;33.77;99537.97;5071683;28;767;-62
2021/06/23 08:47:15;;;;;;;;;;;;;;;38.82;34.20;99544.66;5071210;28;1961;-61
2021/06/23 08:49:47;;;;;;;;;;;;;;;38.64;33.25;99537.50;5071828;28;853;-60
2021/06/23 08:52:14;;;;;;;;;;;;;;;38.60;34.17;99523.50;5071057;28;822;-60
2021/06/23 08:54:42;;;;;;;;;;;;;;;38.14;34.21;99544.56;5071054;28;826;-60
2021/06/23 08:57:09;;;;;;;;;;;;;;;38.34;34.68;99546.09;5071108;28;841;-60
2021/06/23 08:59:39;;;;;;;;;;;;;;;38.51;34.07;99541.59;5071095;28;881;-60
2021/06/23 09:02:07;;;;;;;;;;;;;;;38.02;33.68;99523.41;5071042;28;943;-60
2021/06/23 09:04:34;;;;;;;;;;;;;;;37.76;34.78;99534.41;5070879;28;932;-60
2021/06/23 09:07:00;;;;;;;;;;;;;;;37.94;34.98;99524.31;5070939;28;1963;-60
2021/06/23 09:09:34;;;;;;;;;;;;;;;38.18;34.15;99525.44;5071734;28;942;-60
2021/06/23 09:12:07;;;;;;;;;;;;;;;38.22;34.42;99527.09;5074824;28;890;-60
2021/06/23 09:14:36;;;;;;;;;;;;;;;38.04;33.78;99529.34;5074545;28;1128;-60
2021/06/23 09:17:09;;;;;;;;;;;;;;;37.62;34.37;99530.41;5074548;28;841;-59
2021/06/23 09:19:39;;;;;;;;;;;;;;;37.68;35.15;99520.09;5074493;28;806;-59
2021/06/23 09:22:26;;;;;;;;;;;;;;;37.79;35.08;99533.22;5074417;28;798;-59
2021/06/23 09:24:53;;;;;;;;;;;;;;;38.17;34.44;99532.59;5063764;28;1572;-59
2021/06/23 09:27:26;;;;;;;;;;;;;;;38.48;34.61;99534.13;5074318;28;1918;-59
2021/06/23 09:29:53;;;;;;;;;;;;;;;38.53;33.44;99525.19;5074351;28;826;-60
2021/06/23 09:32:21;;;;;;;;;;;;;;;38.49;35.18;99530.66;5074327;28;866;-60
2021/06/23 09:34:49;;;;;;;;;;;;;;;39.32;33.63;99520.84;5074270;28;806;-60
2021/06/23 09:37:45;;;;;;;;;;;;;;;39.98;32.49;99513.91;5074076;28;876;-60
2021/06/23 09:40:13;;;;;;;;;;;;;;;40.38;32.74;99521.72;5061398;28;1368;-60
2021/06/23 09:42:41;;;;;;;;;;;;;;;39.96;31.83;99513.75;5074140;28;806;-60
2021/06/23 09:45:10;;;;;;;;;;;;;;;39.66;31.35;99509.50;5074076;28;845;-60
2021/06/23 09:47:38;;;;;;;;;;;;;;;39.45;33.15;99493.59;5073873;28;2019;-60
2021/06/23 09:50:05;;;;;;;;;;;;;;;39.22;32.76;99502.78;5073860;28;927;-60
2021/06/23 09:52:34;;;;;;;;;;;;;;;39.53;32.40;99502.09;5073911;28;802;-60
2021/06/23 09:55:01;;;;;;;;;;;;;;;39.69;32.55;99499.56;5073721;28;886;-59
2021/06/23 09:57:28;;;;;;;;;;;;;;;39.80;31.71;99490.25;5073844;28;861;-59
2021/06/23 10:00:16;;;;;;;;;;;;;;;39.99;32.70;99498.81;5073732;28;822;-59
2021/06/23 10:02:43;;;;;;;;;;;;;;;39.91;30.70;99492.47;5073474;28;1837;-59
2021/06/23 10:05:25;;;;;;;;;;;;;;;38.59;32.22;99496.03;5073695;28;869;-59
2021/06/23 10:07:53;;;;;;;;;;;;;;;37.55;34.50;99509.72;5073477;28;1952;-59
2021/06/23 10:10:23;;;;;;;;;;;;;;;37.63;33.51;99506.00;5073531;28;814;-59
2021/06/23 10:12:52;;;;;;;;;;;;;;;36.89;35.39;99517.38;5073893;28;914;-58
2021/06/23 10:15:19;;;;;;;;;;;;;;;37.24;35.26;99520.19;5073295;28;1422;-58
2021/06/23 10:17:46;;;;;;;;;;;;;;;37.72;32.90;99525.44;5073407;28;881;-58
2021/06/23 10:20:12;;;;;;;;;;;;;;;37.93;32.89;99522.78;5073110;28;889;-58
2021/06/23 10:22:42;;;;;;;;;;;;;;;38.17;32.60;99528.94;5073272;28;815;-58
2021/06/23 10:25:10;;;;;;;;;;;;;;;37.93;32.63;99534.31;5073333;28;884;-59
2021/06/23 10:27:40;;;;;;;;;;;;;;;35.95;36.21;99528.31;5073094;28;1983;-58
2021/06/23 10:30:06;;;;;;;;;;;;;;;37.19;34.88;99524.84;5073182;28;818;-58
2021/06/23 10:32:34;;;;;;;;;;;;;;;38.38;32.70;99528.34;5073127;28;830;-59
2021/06/23 10:35:00;;;;;;;;;;;;;;;38.88;31.88;99521.22;5073109;28;830;-59
2021/06/23 10:37:28;;;;;;;;;;;;;;;39.13;32.04;99526.69;5072861;28;917;-59
2021/06/23 10:39:55;;;;;;;;;;;;;;;39.09;32.26;99526.38;5072962;28;905;-59
2021/06/23 10:42:23;;;;;;;;;;;;;;;39.03;33.01;99529.59;5072960;28;917;-59
2021/06/23 10:44:54;;;;;;;;;;;;;;;38.53;32.09;99530.97;5073217;28;786;-59
2021/06/23 10:47:41;;;;;;;;;;;;;;;38.72;31.80;99526.56;5072666;28;1975;-59
2021/06/23 10:50:08;;;;;;;;;;;;;;;38.67;31.97;99528.41;5072743;28;921;-58
2021/06/23 10:52:35;;;;;;;;;;;;;;;38.84;31.08;99523.84;5072742;28;872;-57
2021/06/23 10:55:02;;;;;;;;;;;;;;;38.60;32.24;99532.97;5072696;28;865;-59
2021/06/23 10:57:55;;;;;;;;;;;;;;;38.09;33.12;99531.97;5072699;28;1028;-59
2021/06/23 11:00:23;;;;;;;;;;;;;;;38.87;32.46;99526.25;5070045;28;1437;-59
2021/06/23 11:02:58;;;;;;;;;;;;;;;39.48;30.47;99523.44;5072492;28;870;-58
2021/06/23 11:05:33;;;;;;;;;;;;;;;40.25;31.22;99513.56;5072596;28;822;-59
2021/06/23 11:08:00;;;;;;;;;;;;;;;40.26;30.15;99520.88;5072468;28;1890;-58
2021/06/23 11:10:34;;;;;;;;;;;;;;;40.33;28.76;99525.75;5072381;28;932;-59
2021/06/23 11:13:15;;;;;;;;;;;;;;;39.66;27.98;99523.94;5054516;28;1297;-59
2021/06/23 11:15:45;;;;;;;;;;;;;;;39.34;29.16;99520.22;5072096;28;1200;-59
2021/06/23 11:18:20;;;;;;;;;;;;;;;39.61;28.91;99522.91;5072251;28;845;-59
2021/06/23 11:20:54;;;;;;;;;;;;;;;39.30;30.92;99528.63;5072093;28;901;-59
2021/06/23 11:23:38;;;;;;;;;;;;;;;39.46;30.87;99529.06;5072793;28;802;-59
2021/06/23 11:26:06;;;;;;;;;;;;;;;39.95;30.41;99533.25;5072016;28;1968;-59
2021/06/23 11:28:33;;;;;;;;;;;;;;;40.05;29.44;99518.72;5071975;28;858;-58
2021/06/23 11:31:09;;;;;;;;;;;;;;;39.97;28.94;99523.97;5071947;28;822;-59
2021/06/23 11:33:38;;;;;;;;;;;;;;;39.82;28.27;99525.09;5071371;28;897;-59
2021/06/23 11:36:06;;;;;;;;;;;;;;;39.66;28.89;99524.69;5071839;28;873;-59
2021/06/23 11:38:33;;;;;;;;;;;;;;;39.76;29.05;99528.31;5071921;28;822;-59
2021/06/23 11:41:00;;;;;;;;;;;;;;;40.45;28.67;99520.00;5071837;28;869;-56
2021/06/23 11:43:26;;;;;;;;;;;;;;;40.67;28.15;99519.97;5071839;28;908;-57
2021/06/23 11:45:53;;;;;;;;;;;;;;;40.80;28.24;99520.19;5071727;28;894;-57
2021/06/23 11:48:20;;;;;;;;;;;;;;;40.50;27.53;99516.00;5071716;28;1906;-57
2021/06/23 11:50:47;;;;;;;;;;;;;;;40.12;27.98;99506.22;5071630;28;926;-57
2021/06/23 11:53:15;;;;;;;;;;;;;;;40.17;28.97;99507.22;5071638;28;888;-57
2021/06/23 11:55:43;;;;;;;;;;;;;;;40.16;28.37;99515.16;5071662;28;802;-57
2021/06/23 11:58:11;;;;;;;;;;;;;;;39.94;29.52;99514.38;5071891;28;853;-57
2021/06/23 12:00:39;;;;;;;;;;;;;;;39.96;28.92;99505.84;5071681;28;889;-57
2021/06/23 12:03:10;;;;;;;;;;;;;;;39.35;28.26;99493.63;5071580;28;822;-57
2021/06/23 12:05:37;;;;;;;;;;;;;;;38.67;30.98;99496.63;5071508;28;903;-57
2021/06/23 12:08:04;;;;;;;;;;;;;;;39.00;29.44;99502.69;5071431;28;1963;-57
2021/06/23 12:10:34;;;;;;;;;;;;;;;39.16;29.16;99505.25;5071518;28;849;-56
2021/06/23 12:13:01;;;;;;;;;;;;;;;39.24;29.55;99507.94;5071845;28;925;-57
2021/06/23 12:15:27;;;;;;;;;;;;;;;39.19;29.58;99512.69;5071336;28;1315;-57
2021/06/23 12:18:11;;;;;;;;;;;;;;;39.11;29.57;99507.06;5071354;28;866;-57
2021/06/23 12:20:39;;;;;;;;;;;;;;;38.47;30.32;99516.03;5071539;28;839;-57
2021/06/23 12:23:08;;;;;;;;;;;;;;;38.90;29.98;99512.69;5071370;28;802;-57
2021/06/23 12:25:38;;;;;;;;;;;;;;;39.21;29.21;99507.78;5071564;28;795;-57
2021/06/23 12:28:06;;;;;;;;;;;;;;;38.83;29.58;99523.06;5053480;28;1969;-57
2021/06/23 12:30:34;;;;;;;;;;;;;;;38.42;31.31;99517.13;5071522;28;932;-57
2021/06/23 12:33:05;;;;;;;;;;;;;;;37.96;32.04;99515.81;5071635;28;822;-59
2021/06/23 12:35:32;;;;;;;;;;;;;;;38.52;33.15;99526.56;5069861;28;1317;-57
2021/06/23 12:37:59;;;;;;;;;;;;;;;39.60;31.09;99522.16;5071265;28;846;-57
2021/06/23 12:40:26;;;;;;;;;;;;;;;39.89;29.64;99515.47;5071215;28;877;-57
2021/06/23 12:42:53;;;;;;;;;;;;;;;39.80;28.58;99517.03;5071379;28;850;-57
2021/06/23 12:45:20;;;;;;;;;;;;;;;39.34;28.61;99521.00;5075203;28;865;-57
2021/06/23 12:47:47;;;;;;;;;;;;;;;39.06;28.44;99519.69;5075170;28;1893;-57
2021/06/23 12:50:17;;;;;;;;;;;;;;;38.79;29.26;99523.53;5075220;28;925;-57
2021/06/23 12:52:45;;;;;;;;;;;;;;;38.71;29.78;99507.72;5074977;28;809;-57
2021/06/23 12:55:12;;;;;;;;;;;;;;;38.42;30.14;99511.34;5075255;28;834;-57
2021/06/23 12:57:39;;;;;;;;;;;;;;;38.45;31.88;99513.00;5074810;28;968;-57
2021/06/23 13:00:07;;;;;;;;;;;;;;;38.90;30.82;99516.38;5074863;28;853;-59
2021/06/23 13:02:35;;;;;;;;;;;;;;;38.97;29.82;99515.47;5074835;28;846;-59
2021/06/23 13:05:03;;;;;;;;;;;;;;;39.03;29.77;99520.94;5074829;28;837;-59
2021/06/23 13:07:30;;;;;;;;;;;;;;;39.15;30.48;99521.81;5074647;28;1893;-59
2021/06/23 13:09:59;;;;;;;;;;;;;;;39.63;30.38;99519.41;5074761;28;821;-59
2021/06/23 13:12:27;;;;;;;;;;;;;;;39.50;28.89;99527.22;5074946;28;992;-59
2021/06/23 13:14:53;;;;;;;;;;;;;;;38.47;29.53;99524.69;5070049;28;1543;-59
2021/06/23 13:17:20;;;;;;;;;;;;;;;37.76;31.33;99526.50;5054777;28;901;-57
2021/06/23 13:19:46;;;;;;;;;;;;;;;38.29;30.90;99534.88;5054468;28;885;-57
2021/06/23 13:22:13;;;;;;;;;;;;;;;37.77;30.33;99528.06;5054552;28;822;-57
2021/06/23 13:24:40;;;;;;;;;;;;;;;37.58;30.79;99531.63;5054430;28;881;-57
2021/06/23 13:27:07;;;;;;;;;;;;;;;37.52;32.15;99531.09;5054300;28;1914;-57
2021/06/23 13:29:34;;;;;;;;;;;;;;;37.05;31.86;99532.34;5054363;28;881;-60
2021/06/23 13:32:01;;;;;;;;;;;;;;;36.55;33.37;99530.41;5054330;28;853;-58
2021/06/23 13:34:27;;;;;;;;;;;;;;;36.84;32.08;99530.66;5054154;28;873;-59
2021/06/23 13:36:54;;;;;;;;;;;;;;;37.13;32.37;99528.03;5054260;28;877;-59
2021/06/23 13:39:20;;;;;;;;;;;;;;;38.02;32.09;99540.72;5054145;28;854;-60
2021/06/23 13:41:46;;;;;;;;;;;;;;;38.26;31.36;99531.09;5054258;28;921;-60
2021/06/23 13:44:13;;;;;;;;;;;;;;;38.01;29.82;99534.19;5054084;28;842;-60
2021/06/23 13:46:40;;;;;;;;;;;;;;;37.12;32.02;99526.50;5054001;28;1878;-60
2021/06/23 13:49:07;;;;;;;;;;;;;;;36.57;33.15;99530.56;5054004;28;920;-59
2021/06/23 13:51:33;;;;;;;;;;;;;;;36.51;34.35;99518.56;5053894;28;1197;-59
2021/06/23 13:54:00;;;;;;;;;;;;;;;36.33;32.72;99520.69;5054016;28;1149;-59